createdAt,value
2019-06-15T00:00:39.771Z,4.33
2019-06-15T00:03:08.537Z,3.70
2019-06-15T00:05:37.326Z,4.83
2019-06-15T00:08:06.149Z,4.60
2019-06-15T00:10:35.342Z,4.93
2019-06-15T00:13:04.132Z,3.80
2019-06-15T00:15:33.347Z,4.17
2019-06-15T00:18:02.162Z,4.77
2019-06-15T00:20:31.187Z,4.43
2019-06-15T00:22:59.974Z,4.03
2019-06-15T00:25:28.743Z,4.50
2019-06-15T00:27:57.515Z,4.87
2019-06-15T00:30:26.566Z,4.07
2019-06-15T00:32:55.314Z,4.87
2019-06-15T00:35:24.078Z,3.90
2019-06-15T00:37:53.130Z,3.67
2019-06-15T00:40:22.063Z,4.63
2019-06-15T00:42:50.843Z,4.00
2019-06-15T00:45:19.971Z,4.30
2019-06-15T00:47:48.743Z,4.17
2019-06-15T00:50:17.793Z,4.40
2019-06-15T00:52:46.573Z,4.10
2019-06-15T00:55:15.738Z,3.67
2019-06-15T00:57:44.662Z,3.57
2019-06-15T01:00:14.250Z,4.03
2019-06-15T01:02:43.066Z,4.70
2019-06-15T01:05:13.686Z,4.67
2019-06-15T01:07:42.966Z,4.17
2019-06-15T01:10:12.070Z,4.47
2019-06-15T01:12:41.167Z,4.63
2019-06-15T01:15:10.780Z,5.17
2019-06-15T01:17:39.692Z,6.50
2019-06-15T01:20:09.290Z,4.67
2019-06-15T01:22:38.131Z,4.60
2019-06-15T01:25:07.291Z,4.93
2019-06-15T01:27:36.238Z,4.73
2019-06-15T01:30:06.132Z,4.77
2019-06-15T01:32:34.918Z,4.80
2019-06-15T01:35:04.222Z,4.80
2019-06-15T01:37:33.000Z,4.60
2019-06-15T01:40:01.758Z,4.80
2019-06-15T01:42:30.886Z,5.23
2019-06-15T01:44:59.920Z,4.37
2019-06-15T01:47:29.024Z,5.33
2019-06-15T01:49:57.786Z,4.77
2019-06-15T01:52:26.556Z,4.70
2019-06-15T01:54:55.316Z,5.20
2019-06-15T01:57:24.116Z,4.17
2019-06-15T01:59:52.970Z,4.60
2019-06-15T02:02:21.763Z,4.87
2019-06-15T02:04:51.304Z,5.40
2019-06-15T02:07:20.167Z,5.57
2019-06-15T02:09:48.926Z,5.23
2019-06-15T02:12:18.127Z,4.83
2019-06-15T02:14:47.295Z,5.67
2019-06-15T02:17:16.425Z,7.07
2019-06-15T02:19:46.007Z,7.30
2019-06-15T02:22:14.894Z,6.90
2019-06-15T02:24:44.197Z,7.67
2019-06-15T02:27:13.321Z,6.57
2019-06-15T02:29:42.175Z,7.80
2019-06-15T02:32:11.235Z,8.40
2019-06-15T02:34:40.000Z,8.60
2019-06-15T02:37:09.193Z,8.70
2019-06-15T02:39:37.951Z,8.93
2019-06-15T02:42:06.878Z,8.70
2019-06-15T02:44:35.652Z,7.67
2019-06-15T02:47:04.614Z,8.27
2019-06-15T02:49:33.462Z,8.10
2019-06-15T02:52:02.252Z,8.00
2019-06-15T02:54:31.027Z,8.33
2019-06-15T02:56:59.788Z,7.87
2019-06-15T02:59:28.663Z,9.37
2019-06-15T03:01:57.521Z,9.50
2019-06-15T03:04:26.370Z,8.80
2019-06-15T03:06:55.861Z,9.60
2019-06-15T03:09:24.948Z,8.50
2019-06-15T03:11:53.787Z,9.73
2019-06-15T03:14:23.607Z,9.43
2019-06-15T03:16:52.379Z,9.00
2019-06-15T03:19:21.177Z,8.17
2019-06-15T03:21:50.035Z,8.07
2019-06-15T03:24:19.190Z,7.47
2019-06-15T03:26:48.240Z,7.60
2019-06-15T03:29:17.037Z,9.17
2019-06-15T03:31:45.942Z,8.10
2019-06-15T03:34:14.722Z,8.00
2019-06-15T03:36:43.815Z,8.50
2019-06-15T03:39:12.662Z,8.20
2019-06-15T03:41:41.675Z,8.40
2019-06-15T03:44:10.540Z,8.80
2019-06-15T03:46:39.564Z,9.60
2019-06-15T03:49:08.327Z,9.00
2019-06-15T03:51:37.334Z,11.00
2019-06-15T03:54:06.170Z,9.90
2019-06-15T03:56:35.179Z,11.40
2019-06-15T03:59:04.286Z,10.93
2019-06-15T04:01:41.820Z,10.80
2019-06-15T04:04:10.606Z,10.90
2019-06-15T04:06:39.359Z,10.90
2019-06-15T04:09:08.445Z,11.17
2019-06-15T04:11:37.321Z,11.63
2019-06-15T04:14:06.236Z,11.83
2019-06-15T04:16:36.121Z,11.80
2019-06-15T04:19:05.180Z,11.83
2019-06-15T04:21:34.124Z,11.97
2019-06-15T04:24:02.973Z,11.60
2019-06-15T04:26:35.966Z,11.90
2019-06-15T04:29:02.328Z,11.80
2019-06-15T04:31:31.087Z,12.00
2019-06-15T04:33:59.871Z,12.27
2019-06-15T04:36:28.727Z,12.70
2019-06-15T04:38:57.503Z,12.60
2019-06-15T04:41:26.293Z,10.60
2019-06-15T04:43:55.074Z,12.87
2019-06-15T04:46:23.943Z,12.30
2019-06-15T04:48:52.719Z,11.47
2019-06-15T04:51:21.493Z,13.10
2019-06-15T04:53:50.332Z,11.97
2019-06-15T04:56:19.583Z,14.20
2019-06-15T04:58:48.453Z,13.17
2019-06-15T05:01:17.307Z,12.47
2019-06-15T05:03:46.090Z,12.53
2019-06-15T05:06:15.102Z,12.67
2019-06-15T05:08:43.907Z,13.80
2019-06-15T05:11:12.654Z,13.33
2019-06-15T05:13:41.453Z,13.43
2019-06-15T05:16:10.276Z,13.10
2019-06-15T05:18:39.123Z,13.53
2019-06-15T05:21:07.983Z,12.80
2019-06-15T05:23:36.778Z,14.37
2019-06-15T05:26:05.895Z,13.27
2019-06-15T05:28:34.984Z,15.40
2019-06-15T05:31:03.921Z,12.70
2019-06-15T05:33:32.793Z,14.93
2019-06-15T05:36:01.816Z,13.60
2019-06-15T05:38:30.670Z,14.07
2019-06-15T05:40:59.496Z,13.00
2019-06-15T05:43:28.285Z,12.13
2019-06-15T05:45:57.039Z,11.63
2019-06-15T05:48:25.886Z,13.90
2019-06-15T05:50:58.433Z,12.77
2019-06-15T05:53:26.014Z,13.10
2019-06-15T05:55:54.796Z,15.97
2019-06-15T05:58:24.382Z,13.00
2019-06-15T06:00:53.194Z,13.00
2019-06-15T06:03:21.958Z,14.40
2019-06-15T06:05:50.742Z,12.87
2019-06-15T06:08:19.498Z,13.43
2019-06-15T06:10:48.379Z,13.10
2019-06-15T06:13:17.234Z,14.30
2019-06-15T06:15:46.022Z,12.50
2019-06-15T06:18:15.259Z,13.00
2019-06-15T06:20:44.141Z,12.73
2019-06-15T06:23:13.157Z,13.40
2019-06-15T06:25:42.308Z,14.17
2019-06-15T06:28:11.086Z,13.80
2019-06-15T06:30:39.874Z,15.30
2019-06-15T06:33:08.682Z,14.27
2019-06-15T06:35:37.553Z,14.53
2019-06-15T06:38:06.316Z,15.67
2019-06-15T06:40:35.471Z,14.83
2019-06-15T06:43:04.305Z,16.47
2019-06-15T06:45:33.282Z,14.87
2019-06-15T06:48:02.059Z,17.90
2019-06-15T06:50:30.924Z,15.53
2019-06-15T06:52:59.674Z,15.90
2019-06-15T06:55:28.463Z,15.40
2019-06-15T06:57:57.499Z,15.70
2019-06-15T07:00:26.646Z,14.87
2019-06-15T07:02:55.455Z,15.50
2019-06-15T07:05:24.610Z,16.43
2019-06-15T07:07:53.362Z,17.10
2019-06-15T07:10:22.136Z,15.63
2019-06-15T07:12:51.257Z,16.00
2019-06-15T07:15:20.801Z,17.07
2019-06-15T07:17:49.623Z,17.83
2019-06-15T07:20:18.860Z,17.37
2019-06-15T07:22:47.669Z,16.57
2019-06-15T07:25:16.592Z,17.00
2019-06-15T07:27:45.379Z,15.53
2019-06-15T07:30:14.826Z,15.47
2019-06-15T07:32:43.571Z,16.50
2019-06-15T07:35:12.734Z,15.73
2019-06-15T07:37:41.486Z,14.93
2019-06-15T07:40:10.895Z,16.00
2019-06-15T07:42:39.761Z,14.83
2019-06-15T07:45:10.372Z,14.80
2019-06-15T07:47:39.269Z,16.20
2019-06-15T07:50:08.730Z,16.30
2019-06-15T07:52:37.490Z,15.93
2019-06-15T07:55:06.860Z,15.30
2019-06-15T07:57:35.927Z,13.83
2019-06-15T08:00:05.770Z,15.27
2019-06-15T08:02:34.568Z,14.33
2019-06-15T08:05:04.071Z,13.40
2019-06-15T08:07:32.850Z,14.17
2019-06-15T08:10:01.707Z,14.83
2019-06-15T08:12:30.658Z,16.67
2019-06-15T08:14:59.500Z,14.13
2019-06-15T08:17:28.263Z,15.20
2019-06-15T08:19:57.029Z,15.70
2019-06-15T08:22:25.961Z,15.43
2019-06-15T08:24:54.737Z,14.93
2019-06-15T08:27:23.545Z,13.30
2019-06-15T08:29:52.310Z,13.93
2019-06-15T08:32:21.100Z,14.10
2019-06-15T08:34:50.194Z,11.40
2019-06-15T08:37:18.958Z,12.93
2019-06-15T08:39:47.787Z,11.80
2019-06-15T08:42:16.570Z,11.03
2019-06-15T08:44:45.716Z,11.00
2019-06-15T08:47:14.501Z,10.50
2019-06-15T08:49:43.298Z,11.00
2019-06-15T08:52:12.075Z,9.00
2019-06-15T08:54:40.846Z,9.00
2019-06-15T08:57:09.615Z,9.00
2019-06-15T08:59:38.786Z,8.23
2019-06-15T09:02:07.565Z,8.90
2019-06-15T09:04:36.328Z,7.97
2019-06-15T09:07:05.675Z,7.97
2019-06-15T09:09:34.685Z,7.53
2019-06-15T09:12:03.750Z,6.80
2019-06-15T09:14:32.521Z,7.57
2019-06-15T09:17:01.286Z,7.53
2019-06-15T09:19:30.290Z,8.13
2019-06-15T09:21:59.307Z,6.73
2019-06-15T09:24:28.374Z,7.00
2019-06-15T09:26:57.147Z,6.70
2019-06-15T09:29:26.034Z,6.30
2019-06-15T09:31:55.053Z,6.80
2019-06-15T09:34:23.844Z,7.60
2019-06-15T09:36:52.754Z,7.17
2019-06-15T09:39:21.516Z,6.67
2019-06-15T09:41:50.292Z,6.60
2019-06-15T09:44:19.140Z,5.97
2019-06-15T09:46:47.917Z,7.07
2019-06-15T09:49:16.707Z,7.07
2019-06-15T09:51:45.472Z,7.00
2019-06-15T09:54:14.413Z,6.00
2019-06-15T09:56:43.478Z,5.20
2019-06-15T09:59:25.248Z,5.47
2019-06-15T10:01:42.775Z,5.60
2019-06-15T10:04:11.559Z,5.70
2019-06-15T10:06:40.338Z,5.87
2019-06-15T10:09:09.422Z,5.50
2019-06-15T10:11:38.334Z,5.30
2019-06-15T10:14:07.173Z,5.13
2019-06-15T10:16:36.260Z,5.10
2019-06-15T10:19:05.158Z,5.00
2019-06-15T10:21:33.985Z,5.33
2019-06-15T10:24:03.046Z,4.70
2019-06-15T10:26:32.088Z,4.63
2019-06-15T10:29:00.950Z,4.80
2019-06-15T10:31:29.881Z,4.10
2019-06-15T10:33:59.019Z,5.10
2019-06-15T10:36:27.781Z,5.90
2019-06-15T10:38:56.876Z,4.80
2019-06-15T10:41:25.648Z,5.93
2019-06-15T10:43:54.422Z,5.97
2019-06-15T10:46:23.235Z,5.90
2019-06-15T10:48:52.074Z,4.87
2019-06-15T10:51:20.952Z,4.30
2019-06-15T10:53:50.148Z,4.20
2019-06-15T10:56:18.940Z,4.80
2019-06-15T10:58:48.037Z,4.67
2019-06-15T11:01:16.831Z,5.37
2019-06-15T11:03:45.621Z,4.40
2019-06-15T11:06:14.706Z,4.70
2019-06-15T11:08:43.728Z,5.67
2019-06-15T11:11:22.929Z,6.30
2019-06-15T11:13:53.012Z,6.70
2019-06-15T11:16:21.940Z,6.77
2019-06-15T11:18:51.054Z,6.33
2019-06-15T11:21:19.815Z,6.80
2019-06-15T11:23:48.667Z,7.30
2019-06-15T11:26:17.842Z,7.17
2019-06-15T11:28:47.043Z,7.20
2019-06-15T11:31:16.131Z,7.30
2019-06-15T11:33:44.895Z,6.93
2019-06-15T11:36:14.127Z,8.03
2019-06-15T11:38:42.942Z,7.13
2019-06-15T11:41:12.112Z,7.03
2019-06-15T11:43:40.986Z,6.97
2019-06-15T11:46:09.818Z,8.13
2019-06-15T11:48:38.646Z,7.77
2019-06-15T11:51:07.654Z,7.23
2019-06-15T11:53:36.541Z,8.57
2019-06-15T11:56:05.537Z,9.33
2019-06-15T11:58:34.329Z,10.07
2019-06-15T12:01:03.153Z,10.33
2019-06-15T12:03:31.959Z,11.47
2019-06-15T12:06:00.729Z,11.60
2019-06-15T12:08:29.959Z,12.90
2019-06-15T12:10:58.988Z,12.30
2019-06-15T12:13:27.792Z,12.50
2019-06-15T12:15:56.637Z,13.67
2019-06-15T12:18:25.798Z,14.17
2019-06-15T12:20:54.615Z,13.40
2019-06-15T12:23:23.659Z,12.30
2019-06-15T12:25:52.423Z,11.93
2019-06-15T12:28:21.528Z,13.37
2019-06-15T12:30:50.331Z,12.30
2019-06-15T12:33:19.178Z,11.07
2019-06-15T12:35:48.100Z,10.90
2019-06-15T12:38:16.883Z,10.00
2019-06-15T12:40:45.767Z,10.43
2019-06-15T12:43:14.870Z,9.60
2019-06-15T12:45:43.630Z,9.77
2019-06-15T12:48:12.488Z,9.80
2019-06-15T12:50:41.275Z,9.33
2019-06-15T12:53:10.121Z,9.73
2019-06-15T12:55:39.288Z,8.80
2019-06-15T12:58:08.348Z,8.37
2019-06-15T13:00:38.150Z,8.77
2019-06-15T13:03:07.020Z,10.10
2019-06-15T13:05:36.133Z,10.07
2019-06-15T13:08:04.972Z,9.33
2019-06-15T13:10:37.001Z,9.30
2019-06-15T13:13:06.283Z,8.50
2019-06-15T13:15:35.175Z,9.03
2019-06-15T13:18:04.441Z,9.10
2019-06-15T13:20:33.378Z,7.73
2019-06-15T13:23:02.219Z,8.40
2019-06-15T13:25:31.011Z,9.17
2019-06-15T13:27:59.766Z,7.97
2019-06-15T13:30:28.711Z,8.23
2019-06-15T13:32:58.093Z,8.30
2019-06-15T13:35:26.943Z,8.17
2019-06-15T13:37:55.703Z,7.53
2019-06-15T13:40:24.874Z,6.60
2019-06-15T13:42:53.639Z,7.37
2019-06-15T13:45:22.595Z,7.20
2019-06-15T13:47:51.369Z,6.20
2019-06-15T13:50:20.142Z,6.40
2019-06-15T13:52:49.237Z,7.20
2019-06-15T13:55:21.762Z,7.37
2019-06-15T13:57:49.540Z,7.30
2019-06-15T14:00:18.670Z,7.20
2019-06-15T14:02:47.708Z,6.47
2019-06-15T14:05:16.568Z,5.87
2019-06-15T14:07:45.488Z,6.73
2019-06-15T14:10:14.826Z,7.07
2019-06-15T14:12:43.678Z,7.03
2019-06-15T14:15:13.122Z,6.83
2019-06-15T14:17:41.935Z,7.10
2019-06-15T14:20:11.047Z,7.97
2019-06-15T14:22:40.155Z,7.20
2019-06-15T14:25:09.385Z,6.93
2019-06-15T14:27:38.188Z,6.37
2019-06-15T14:30:08.495Z,5.70
2019-06-15T14:32:37.840Z,6.17
2019-06-15T14:35:06.710Z,6.20
2019-06-15T14:37:35.514Z,5.53
2019-06-15T14:40:05.150Z,5.60
2019-06-15T14:42:33.909Z,6.57
2019-06-15T14:45:02.695Z,6.23
2019-06-15T14:47:31.456Z,5.40
2019-06-15T14:50:00.335Z,6.53
2019-06-15T14:52:29.444Z,7.53
2019-06-15T14:54:58.231Z,6.63
2019-06-15T14:57:27.262Z,7.10
2019-06-15T15:00:04.463Z,6.63
2019-06-15T15:02:26.800Z,6.40
2019-06-15T15:04:56.493Z,7.00
2019-06-15T15:07:26.371Z,7.00
2019-06-15T15:09:56.658Z,6.97
2019-06-15T15:12:26.607Z,5.73
2019-06-15T15:14:56.535Z,6.33
2019-06-15T15:17:26.842Z,6.20
2019-06-15T15:19:57.422Z,5.93
2019-06-15T15:22:27.020Z,6.20
2019-06-15T15:24:56.353Z,6.20
2019-06-15T15:27:27.091Z,6.40
2019-06-15T15:29:57.106Z,5.77
2019-06-15T15:32:31.214Z,7.00
2019-06-15T15:34:56.986Z,6.10
2019-06-15T15:37:26.713Z,5.47
2019-06-15T15:39:56.571Z,4.10
2019-06-15T15:42:26.751Z,3.43
2019-06-15T15:44:56.575Z,3.80
2019-06-15T15:47:27.543Z,3.23
2019-06-15T15:49:57.629Z,2.40
2019-06-15T15:52:27.062Z,3.03
2019-06-15T15:54:56.643Z,3.00
2019-06-15T15:57:26.495Z,2.13
2019-06-15T15:59:56.465Z,3.33
2019-06-15T16:02:35.435Z,3.07
2019-06-15T16:04:57.585Z,2.57
2019-06-15T16:07:27.898Z,2.40
2019-06-15T16:09:56.851Z,2.30
2019-06-15T16:12:25.916Z,2.40
2019-06-15T16:14:56.463Z,2.87
2019-06-15T16:17:26.850Z,2.40
2019-06-15T16:19:56.475Z,3.10
2019-06-15T16:22:26.369Z,2.53
2019-06-15T16:24:56.449Z,1.97
2019-06-15T16:27:26.554Z,2.50
2019-06-15T16:29:56.960Z,2.67
2019-06-15T16:32:26.570Z,2.30
2019-06-15T16:34:55.894Z,1.90
2019-06-15T16:37:25.980Z,2.00
2019-06-15T16:39:54.989Z,2.23
2019-06-15T16:42:26.601Z,2.00
2019-06-15T16:44:56.127Z,2.33
2019-06-15T16:47:27.322Z,2.10
2019-06-15T16:49:56.754Z,2.00
2019-06-15T16:52:26.958Z,2.20
2019-06-15T16:54:55.919Z,2.40
2019-06-15T16:57:26.675Z,2.57
2019-06-15T16:59:56.100Z,1.80
2019-06-15T17:02:26.113Z,2.50
2019-06-15T17:04:57.031Z,2.37
2019-06-15T17:07:26.267Z,2.30
2019-06-15T17:09:56.903Z,2.50
2019-06-15T17:12:26.065Z,2.60
2019-06-15T17:14:55.029Z,2.13
2019-06-15T17:17:26.423Z,2.23
2019-06-15T17:19:56.805Z,2.23
2019-06-15T17:22:24.798Z,2.20
2019-06-15T17:24:53.562Z,2.10
2019-06-15T17:27:22.550Z,2.70
2019-06-15T17:29:51.583Z,2.30
2019-06-15T17:32:20.395Z,2.10
2019-06-15T17:34:49.457Z,2.20
2019-06-15T17:37:18.560Z,2.10
2019-06-15T17:39:47.654Z,1.90
2019-06-15T17:42:16.527Z,1.93
2019-06-15T17:44:46.223Z,2.03
2019-06-15T17:47:16.934Z,2.50
2019-06-15T17:49:46.892Z,2.10
2019-06-15T17:52:16.868Z,1.93
2019-06-15T17:54:46.634Z,2.10
2019-06-15T17:57:15.560Z,1.70
2019-06-15T17:59:46.872Z,1.80
2019-06-15T18:02:17.176Z,1.70
2019-06-15T18:04:47.569Z,2.03
2019-06-15T18:07:16.934Z,1.60
2019-06-15T18:09:46.571Z,2.03
2019-06-15T18:12:16.211Z,1.67
2019-06-15T18:14:46.386Z,1.40
2019-06-15T18:17:17.173Z,2.03
2019-06-15T18:19:46.971Z,1.67
2019-06-15T18:22:16.972Z,2.33
2019-06-15T18:24:46.697Z,1.87
2019-06-15T18:27:16.935Z,2.00
2019-06-15T18:29:46.783Z,1.50
2019-06-15T18:32:17.134Z,1.73
2019-06-15T18:34:46.591Z,2.00
2019-06-15T18:37:17.302Z,2.07
2019-06-15T18:39:46.848Z,2.00
2019-06-15T18:42:16.450Z,1.90
2019-06-15T18:44:47.672Z,1.80
2019-06-15T18:47:16.447Z,2.10
2019-06-15T18:49:47.357Z,2.33
2019-06-15T18:52:17.067Z,2.60
2019-06-15T18:54:46.709Z,1.80
2019-06-15T18:57:17.528Z,1.97
2019-06-15T18:59:47.431Z,2.07
2019-06-15T19:02:16.389Z,2.03
2019-06-15T19:04:45.549Z,2.10
2019-06-15T19:07:16.205Z,1.40
2019-06-15T19:09:46.601Z,2.53
2019-06-15T19:12:18.530Z,2.20
2019-06-15T19:14:47.029Z,2.33
2019-06-15T19:17:16.585Z,1.90
2019-06-15T19:19:46.769Z,2.00
2019-06-15T19:22:17.131Z,2.53
2019-06-15T19:24:50.328Z,2.13
2019-06-15T19:27:16.610Z,2.03
2019-06-15T19:29:46.606Z,2.20
2019-06-15T19:32:17.290Z,2.00
2019-06-15T19:34:48.800Z,1.80
2019-06-15T19:37:17.444Z,1.80
2019-06-15T19:39:46.530Z,1.93
2019-06-15T19:42:15.386Z,2.17
2019-06-15T19:44:44.206Z,1.83
2019-06-15T19:47:13.216Z,2.00
2019-06-15T19:49:41.978Z,2.30
2019-06-15T19:52:10.719Z,1.83
2019-06-15T19:54:39.495Z,2.27
2019-06-15T19:57:08.502Z,2.47
2019-06-15T19:59:37.520Z,2.37
2019-06-15T20:02:07.117Z,2.47
2019-06-15T20:04:36.813Z,1.83
2019-06-15T20:07:06.558Z,2.33
2019-06-15T20:09:37.126Z,2.40
2019-06-15T20:12:06.832Z,2.47
2019-06-15T20:14:36.831Z,2.30
2019-06-15T20:17:07.409Z,2.43
2019-06-15T20:19:37.706Z,2.27
2019-06-15T20:22:06.801Z,2.07
2019-06-15T20:24:36.490Z,2.10
2019-06-15T20:27:09.737Z,2.30
2019-06-15T20:29:36.190Z,2.97
2019-06-15T20:32:06.863Z,2.43
2019-06-15T20:34:37.119Z,2.93
2019-06-15T20:37:06.219Z,2.63
2019-06-15T20:39:36.300Z,2.80
2019-06-15T20:42:07.895Z,2.73
2019-06-15T20:44:36.742Z,2.90
2019-06-15T20:47:06.600Z,2.43
2019-06-15T20:49:37.004Z,2.73
2019-06-15T20:52:07.139Z,3.10
2019-06-15T20:54:36.132Z,2.70
2019-06-15T20:57:06.444Z,2.50
2019-06-15T20:59:37.024Z,3.30
2019-06-15T21:02:06.784Z,3.53
2019-06-15T21:04:36.325Z,3.40
2019-06-15T21:07:06.650Z,2.93
2019-06-15T21:09:36.378Z,3.10
2019-06-15T21:12:06.662Z,2.70
2019-06-15T21:14:36.557Z,2.60
2019-06-15T21:17:06.824Z,2.70
2019-06-15T21:19:36.114Z,3.10
2019-06-15T21:22:06.325Z,4.40
2019-06-15T21:24:37.349Z,3.97
2019-06-15T21:27:06.215Z,4.30
2019-06-15T21:29:37.015Z,4.27
2019-06-15T21:32:06.187Z,5.40
2019-06-15T21:34:36.225Z,4.00
2019-06-15T21:37:06.598Z,4.10
2019-06-15T21:39:36.484Z,4.40
2019-06-15T21:42:06.148Z,4.33
2019-06-15T21:44:36.116Z,4.33
2019-06-15T21:47:06.880Z,6.07
2019-06-15T21:49:35.995Z,5.93
2019-06-15T21:52:06.952Z,6.60
2019-06-15T21:54:36.087Z,6.47
2019-06-15T21:57:07.021Z,7.53
2019-06-15T21:59:37.024Z,6.97
2019-06-15T22:02:07.030Z,5.60
2019-06-15T22:04:36.790Z,5.03
2019-06-15T22:07:06.577Z,5.37
2019-06-15T22:09:36.444Z,3.67
2019-06-15T22:12:06.941Z,4.00
2019-06-15T22:14:35.881Z,5.30
2019-06-15T22:17:06.795Z,4.47
2019-06-15T22:19:36.928Z,4.50
2019-06-15T22:22:07.456Z,4.50
2019-06-15T22:24:36.578Z,4.60
2019-06-15T22:27:06.627Z,4.47
2019-06-15T22:29:36.455Z,4.17
2019-06-15T22:32:06.820Z,4.83
2019-06-15T22:34:36.254Z,3.80
2019-06-15T22:37:06.918Z,4.60
2019-06-15T22:39:37.093Z,3.90
2019-06-15T22:42:06.848Z,4.40
2019-06-15T22:44:37.236Z,3.47
2019-06-15T22:47:06.878Z,3.83
2019-06-15T22:49:36.068Z,3.40
2019-06-15T22:52:06.518Z,3.40
2019-06-15T22:54:37.608Z,3.80
2019-06-15T22:57:06.261Z,4.30
2019-06-15T22:59:35.279Z,4.00
2019-06-15T23:02:06.963Z,3.70
2019-06-15T23:04:37.050Z,4.00
2019-06-15T23:07:06.909Z,3.43
2019-06-15T23:09:38.070Z,3.87
2019-06-15T23:12:07.258Z,3.93
2019-06-15T23:14:37.302Z,3.50
2019-06-15T23:17:07.362Z,3.80
2019-06-15T23:19:36.671Z,4.10
2019-06-15T23:22:07.797Z,4.23
2019-06-15T23:24:36.438Z,4.00
2019-06-15T23:27:06.788Z,4.10
2019-06-15T23:29:36.765Z,5.43
2019-06-15T23:32:06.318Z,4.23
2019-06-15T23:34:35.227Z,4.47
2019-06-15T23:37:06.708Z,5.20
2019-06-15T23:39:36.154Z,5.07
2019-06-15T23:42:06.113Z,4.43
2019-06-15T23:44:36.083Z,4.73
2019-06-15T23:47:05.033Z,4.87
2019-06-15T23:49:36.518Z,5.03
2019-06-15T23:52:06.821Z,4.67
2019-06-15T23:54:36.910Z,4.40
2019-06-15T23:57:06.385Z,4.23
2019-06-15T23:59:37.287Z,4.43
